Terminal Aerodrome Forecast
Issued by NWS

Current Version | Previous Version | Graphics & Text | Print | Product List | Glossary On
Versions: 1 2 3 4 5 6 7 8 9 10 11 12 13 14 15 16 17
000
FTUS41 KRNK 190540
TAFLWB
TAF
KLWB 190540Z 1906/2006 27015G28KT P6SM OVC045
      TEMPO 1906/1909 4SM -SHRA
     FM190900 28015G30KT P6SM VCSH OVC030
     FM191900 31012G22KT P6SM OVC040
     FM200000 32010G18KT P6SM BKN050=

USA.gov is the U.S. government's official web portal to all federal, state and local government web resources and services.